createdAt,value
2023-11-30T00:00:54.128Z,74.22
2023-11-30T00:03:19.645Z,74.39
2023-11-30T00:05:28.315Z,74.20
2023-11-30T00:07:36.834Z,74.22
2023-11-30T00:09:45.588Z,74.29
2023-11-30T00:11:54.251Z,74.36
2023-11-30T00:14:03.420Z,74.36
2023-11-30T00:16:14.060Z,74.23
2023-11-30T00:18:22.869Z,74.26
2023-11-30T00:20:31.553Z,74.33
2023-11-30T00:22:41.170Z,74.43
2023-11-30T00:24:49.779Z,74.15
2023-11-30T00:26:58.382Z,74.07
2023-11-30T00:29:07.129Z,74.29
2023-11-30T00:31:16.145Z,74.35
2023-11-30T00:33:24.875Z,74.37
2023-11-30T00:35:33.477Z,74.52
2023-11-30T00:37:42.415Z,74.54
2023-11-30T00:39:51.139Z,74.53
2023-11-30T00:42:00.901Z,74.57
2023-11-30T00:44:09.762Z,74.61
2023-11-30T00:46:20.812Z,74.65
2023-11-30T00:48:29.447Z,74.58
2023-11-30T00:50:37.944Z,74.44
2023-11-30T00:52:47.041Z,74.38
2023-11-30T00:54:55.619Z,74.44
2023-11-30T00:57:04.227Z,74.68
2023-11-30T00:59:12.811Z,74.89
2023-11-30T01:01:22.217Z,75.07
2023-11-30T01:03:31.227Z,75.13
2023-11-30T01:05:39.943Z,75.13
2023-11-30T01:07:48.779Z,75.29
2023-11-30T01:09:57.513Z,75.21
2023-11-30T01:12:07.233Z,75.10
2023-11-30T01:14:15.783Z,75.16
2023-11-30T01:16:24.820Z,75.23
2023-11-30T01:18:34.120Z,75.18
2023-11-30T01:20:42.822Z,75.38
2023-11-30T01:22:51.452Z,75.60
2023-11-30T01:25:00.257Z,75.32
2023-11-30T01:27:10.045Z,75.43
2023-11-30T01:29:19.065Z,75.51
2023-11-30T01:31:27.983Z,75.61
2023-11-30T01:33:37.770Z,75.62
2023-11-30T01:35:46.565Z,75.84
2023-11-30T01:37:55.074Z,75.61
2023-11-30T01:40:03.616Z,75.79
2023-11-30T01:42:12.120Z,75.73
2023-11-30T01:44:20.706Z,75.92
2023-11-30T01:46:29.909Z,75.75
2023-11-30T01:48:39.094Z,76.10
2023-11-30T01:50:48.782Z,76.16
2023-11-30T01:52:58.389Z,76.04
2023-11-30T01:55:09.614Z,76.13
2023-11-30T01:57:18.566Z,76.25
2023-11-30T01:59:27.506Z,76.30
2023-11-30T02:01:36.887Z,76.14
2023-11-30T02:03:46.191Z,76.17
2023-11-30T02:05:55.572Z,76.20
2023-11-30T02:08:04.965Z,76.42
2023-11-30T02:10:13.838Z,76.30
2023-11-30T02:12:22.464Z,76.44
2023-11-30T02:14:31.641Z,76.35
2023-11-30T02:16:40.440Z,76.35
2023-11-30T02:18:49.151Z,76.58
2023-11-30T02:20:57.845Z,76.43
2023-11-30T02:23:06.444Z,76.59
2023-11-30T02:25:15.537Z,76.20
2023-11-30T02:27:24.599Z,76.24
2023-11-30T02:29:33.981Z,76.40
2023-11-30T02:31:42.619Z,76.63
2023-11-30T02:33:51.507Z,76.63
2023-11-30T02:36:00.335Z,76.51
2023-11-30T02:38:08.835Z,76.56
2023-11-30T02:40:17.918Z,76.28
2023-11-30T02:42:26.593Z,76.31
2023-11-30T02:44:35.040Z,76.31
2023-11-30T02:46:44.805Z,76.40
2023-11-30T02:48:53.436Z,76.16
2023-11-30T02:51:02.271Z,76.28
2023-11-30T02:53:11.073Z,76.34
2023-11-30T02:55:20.220Z,76.57
2023-11-30T02:57:28.867Z,76.55
2023-11-30T02:59:37.637Z,76.42
2023-11-30T03:01:49.719Z,76.18
2023-11-30T03:03:58.308Z,76.30
2023-11-30T03:06:11.251Z,76.20
2023-11-30T03:08:19.859Z,76.30
2023-11-30T03:10:28.337Z,76.28
2023-11-30T03:12:36.777Z,76.40
2023-11-30T03:14:48.719Z,76.20
2023-11-30T03:16:57.943Z,76.23
2023-11-30T03:19:16.186Z,76.18
2023-11-30T03:21:27.153Z,76.11
2023-11-30T03:23:37.267Z,76.10
2023-11-30T03:25:47.134Z,76.10
2023-11-30T03:27:55.760Z,76.40
2023-11-30T03:34:11.016Z,76.28
2023-11-30T03:36:19.855Z,76.30
2023-11-30T03:38:28.440Z,76.40
2023-11-30T03:40:36.963Z,76.62
2023-11-30T03:42:45.499Z,76.44
2023-11-30T03:44:54.207Z,76.53
2023-11-30T03:47:02.810Z,76.20
2023-11-30T03:49:11.313Z,76.47
2023-11-30T03:51:19.820Z,76.69
2023-11-30T03:53:28.336Z,76.71
2023-11-30T03:55:36.954Z,76.50
2023-11-30T03:57:45.590Z,76.55
2023-11-30T03:59:54.337Z,76.60
2023-11-30T04:02:02.881Z,76.52
2023-11-30T04:04:11.929Z,76.73
2023-11-30T04:06:24.031Z,76.71
2023-11-30T04:08:30.968Z,76.81
2023-11-30T04:10:39.527Z,77.02
2023-11-30T04:12:48.053Z,76.83
2023-11-30T04:14:56.971Z,76.97
2023-11-30T04:17:05.694Z,76.97
2023-11-30T04:19:14.382Z,77.05
2023-11-30T04:21:23.754Z,77.16
2023-11-30T04:23:32.608Z,77.02
2023-11-30T04:25:41.278Z,76.83
2023-11-30T04:27:49.863Z,77.01
2023-11-30T04:29:58.810Z,76.87
2023-11-30T04:32:08.768Z,76.80
2023-11-30T04:34:18.392Z,77.06
2023-11-30T04:36:27.610Z,77.06
2023-11-30T04:38:36.120Z,77.24
2023-11-30T04:40:44.665Z,77.29
2023-11-30T04:42:53.144Z,76.78
2023-11-30T04:45:01.656Z,76.96
2023-11-30T04:47:10.751Z,76.91
2023-11-30T04:49:19.266Z,77.09
2023-11-30T04:51:27.681Z,76.99
2023-11-30T04:53:37.350Z,77.08
2023-11-30T04:55:46.139Z,77.05
2023-11-30T04:57:54.975Z,76.92
2023-11-30T05:00:03.699Z,76.88
2023-11-30T05:02:13.217Z,76.93
2023-11-30T05:04:22.033Z,76.87
2023-11-30T05:06:30.557Z,76.83
2023-11-30T05:08:39.148Z,76.75
2023-11-30T05:10:47.767Z,76.49
2023-11-30T05:12:56.398Z,76.76
2023-11-30T05:15:05.380Z,76.62
2023-11-30T05:17:14.157Z,76.95
2023-11-30T05:19:22.540Z,76.92
2023-11-30T05:21:31.063Z,76.99
2023-11-30T05:23:39.762Z,77.01
2023-11-30T05:25:48.516Z,76.52
2023-11-30T05:27:57.114Z,76.91
2023-11-30T05:30:06.081Z,76.83
2023-11-30T05:32:14.708Z,76.63
2023-11-30T05:34:23.144Z,76.66
2023-11-30T05:36:31.656Z,76.47
2023-11-30T05:38:40.145Z,76.74
2023-11-30T05:40:49.037Z,76.71
2023-11-30T05:42:57.615Z,76.84
2023-11-30T05:45:07.864Z,76.89
2023-11-30T05:47:16.778Z,76.70
2023-11-30T05:49:25.151Z,77.01
2023-11-30T05:51:34.056Z,76.60
2023-11-30T05:53:42.666Z,76.66
2023-11-30T05:55:51.305Z,76.64
2023-11-30T05:57:59.817Z,76.45
2023-11-30T06:00:11.840Z,76.63
2023-11-30T06:02:23.771Z,76.66
2023-11-30T06:04:32.643Z,76.98
2023-11-30T06:06:42.597Z,76.52
2023-11-30T06:08:51.160Z,76.85
2023-11-30T06:11:00.214Z,77.00
2023-11-30T06:13:09.695Z,76.83
2023-11-30T06:15:18.436Z,76.99
2023-11-30T06:17:27.037Z,76.84
2023-11-30T06:19:35.588Z,76.58
2023-11-30T06:21:44.133Z,76.63
2023-11-30T06:23:52.808Z,76.63
2023-11-30T06:26:01.397Z,76.76
2023-11-30T06:28:09.890Z,76.59
2023-11-30T06:30:19.275Z,76.23
2023-11-30T06:32:28.072Z,76.67
2023-11-30T06:34:38.508Z,76.35
2023-11-30T06:36:48.180Z,76.12
2023-11-30T06:38:56.687Z,76.45
2023-11-30T06:41:11.880Z,76.29
2023-11-30T06:43:20.397Z,76.16
2023-11-30T06:45:29.020Z,76.18
2023-11-30T06:47:39.959Z,76.32
2023-11-30T06:49:50.313Z,76.06
2023-11-30T06:52:02.849Z,76.24
2023-11-30T06:54:13.715Z,76.32
2023-11-30T06:56:23.132Z,76.45
2023-11-30T06:58:33.330Z,76.45
2023-11-30T07:00:42.804Z,76.23
2023-11-30T07:02:52.670Z,76.38
2023-11-30T07:05:05.822Z,76.33
2023-11-30T07:07:23.981Z,76.09
2023-11-30T07:09:40.662Z,76.39
2023-11-30T07:11:50.211Z,76.22
2023-11-30T07:14:01.077Z,76.29
2023-11-30T07:16:14.574Z,76.35
2023-11-30T07:18:23.479Z,75.97
2023-11-30T07:20:31.963Z,76.27
2023-11-30T07:22:40.538Z,76.47
2023-11-30T07:24:50.460Z,76.47
2023-11-30T07:26:58.927Z,76.30
2023-11-30T07:29:07.394Z,76.52
2023-11-30T07:31:22.543Z,76.70
2023-11-30T07:33:31.537Z,76.66
2023-11-30T07:35:41.651Z,76.49
2023-11-30T07:37:50.765Z,76.74
2023-11-30T07:40:00.269Z,76.63
2023-11-30T07:42:09.232Z,76.39
2023-11-30T07:44:17.942Z,76.48
2023-11-30T07:46:26.633Z,76.47
2023-11-30T07:48:35.117Z,76.56
2023-11-30T07:50:43.546Z,76.38
2023-11-30T07:52:53.594Z,76.51
2023-11-30T07:55:03.539Z,76.53
2023-11-30T07:57:13.359Z,76.33
2023-11-30T07:59:21.818Z,76.18
2023-11-30T08:01:30.545Z,76.41
2023-11-30T08:03:39.307Z,76.08
2023-11-30T08:05:47.871Z,76.27
2023-11-30T08:07:56.926Z,76.30
2023-11-30T08:10:07.635Z,76.34
2023-11-30T08:12:16.165Z,76.22
2023-11-30T08:14:24.636Z,75.92
2023-11-30T08:16:33.070Z,75.93
2023-11-30T08:18:42.088Z,75.62
2023-11-30T08:20:50.590Z,75.59
2023-11-30T08:22:59.329Z,75.78
2023-11-30T08:25:09.693Z,75.62
2023-11-30T08:27:18.111Z,75.54
2023-11-30T08:29:26.532Z,75.86
2023-11-30T08:31:38.092Z,75.80
2023-11-30T08:33:48.786Z,75.70
2023-11-30T08:35:58.156Z,75.41
2023-11-30T08:38:06.783Z,75.29
2023-11-30T08:40:15.791Z,74.43
2023-11-30T08:42:24.677Z,73.87
2023-11-30T08:44:36.385Z,73.46
2023-11-30T08:46:44.890Z,72.99
2023-11-30T08:48:53.490Z,72.49
2023-11-30T08:51:02.183Z,72.11
2023-11-30T08:53:11.002Z,71.13
2023-11-30T08:55:19.638Z,70.18
2023-11-30T08:57:28.203Z,69.38
2023-11-30T08:59:36.787Z,69.22
2023-11-30T09:01:45.505Z,68.96
2023-11-30T09:03:55.947Z,68.77
2023-11-30T09:06:04.667Z,68.86
2023-11-30T09:08:13.116Z,68.73
2023-11-30T09:10:21.607Z,67.98
2023-11-30T09:12:30.201Z,67.05
2023-11-30T09:14:39.042Z,67.22
2023-11-30T09:16:47.714Z,66.60
2023-11-30T09:18:56.529Z,66.07
2023-11-30T09:21:05.055Z,66.06
2023-11-30T09:23:13.537Z,66.01
2023-11-30T09:25:22.085Z,65.96
2023-11-30T09:27:31.025Z,65.87
2023-11-30T09:29:40.321Z,65.63
2023-11-30T09:31:49.008Z,65.34
2023-11-30T09:33:57.475Z,64.90
2023-11-30T09:36:06.718Z,64.78
2023-11-30T09:38:15.240Z,64.76
2023-11-30T09:40:23.954Z,65.28
2023-11-30T09:42:32.595Z,65.77
2023-11-30T09:44:41.404Z,66.18
2023-11-30T09:46:51.199Z,66.05
2023-11-30T09:48:59.679Z,66.22
2023-11-30T09:51:11.957Z,66.26
2023-11-30T09:53:20.696Z,66.07
2023-11-30T09:55:30.632Z,65.71
2023-11-30T09:57:39.166Z,65.64
2023-11-30T09:59:48.275Z,65.77
2023-11-30T10:02:00.896Z,66.02
2023-11-30T10:04:18.455Z,66.41
2023-11-30T10:06:27.049Z,66.40
2023-11-30T10:08:35.515Z,65.64
2023-11-30T10:10:43.942Z,65.55
2023-11-30T10:12:54.385Z,65.57
2023-11-30T10:15:06.385Z,65.90
2023-11-30T10:17:13.388Z,65.95
2023-11-30T10:19:22.179Z,65.84
2023-11-30T10:21:30.822Z,66.34
2023-11-30T10:23:39.333Z,66.69
2023-11-30T10:25:48.548Z,67.19
2023-11-30T10:27:59.966Z,67.22
2023-11-30T10:30:15.984Z,67.61
2023-11-30T10:32:25.512Z,67.58
2023-11-30T10:34:43.396Z,67.88
2023-11-30T10:36:52.851Z,68.25
2023-11-30T10:39:08.959Z,68.26
2023-11-30T10:41:37.099Z,68.41
2023-11-30T10:43:50.588Z,68.78
2023-11-30T10:46:01.630Z,68.73
2023-11-30T10:48:13.574Z,68.85
2023-11-30T10:50:20.849Z,68.75
2023-11-30T10:52:29.937Z,68.95
2023-11-30T10:54:45.304Z,68.87
2023-11-30T10:56:54.182Z,69.05
2023-11-30T10:59:03.229Z,69.02
2023-11-30T11:01:14.994Z,69.33
2023-11-30T11:03:25.131Z,69.28
2023-11-30T11:05:33.733Z,69.34
2023-11-30T11:07:45.294Z,69.25
2023-11-30T11:09:59.376Z,69.30
2023-11-30T11:12:19.103Z,69.30
2023-11-30T11:14:34.223Z,69.33
2023-11-30T11:16:45.506Z,69.22
2023-11-30T11:19:04.677Z,69.39
2023-11-30T11:21:27.559Z,69.51
2023-11-30T11:23:40.868Z,69.51
2023-11-30T11:25:49.718Z,69.87
2023-11-30T11:27:58.336Z,69.69
2023-11-30T11:30:10.256Z,69.27
2023-11-30T11:32:17.140Z,69.24
2023-11-30T11:34:25.602Z,69.08
2023-11-30T11:36:38.885Z,69.07
2023-11-30T11:38:47.631Z,69.06
2023-11-30T11:40:56.147Z,69.04
2023-11-30T11:43:04.639Z,68.91
2023-11-30T11:45:13.723Z,69.03
2023-11-30T11:47:24.334Z,69.08
2023-11-30T11:49:32.890Z,68.80
2023-11-30T11:51:51.104Z,68.90
2023-11-30T11:54:00.306Z,69.10
2023-11-30T11:56:12.097Z,69.05
2023-11-30T11:58:20.705Z,68.93
2023-11-30T12:00:29.237Z,69.15
2023-11-30T12:02:37.926Z,69.00
2023-11-30T12:04:46.555Z,69.16
2023-11-30T12:06:55.342Z,69.22
2023-11-30T12:09:14.288Z,69.16
2023-11-30T12:11:23.960Z,69.34
2023-11-30T12:13:38.701Z,69.19
2023-11-30T12:15:49.927Z,69.34
2023-11-30T12:17:59.422Z,69.37
2023-11-30T12:20:09.612Z,69.55
2023-11-30T12:22:18.149Z,69.54
2023-11-30T12:24:26.594Z,69.47
2023-11-30T12:26:35.078Z,69.55
2023-11-30T12:28:43.499Z,69.68
2023-11-30T12:30:52.045Z,69.63
2023-11-30T12:33:00.712Z,69.47
2023-11-30T12:35:10.828Z,69.45
2023-11-30T12:37:19.649Z,69.84
2023-11-30T12:39:28.107Z,69.95
2023-11-30T12:41:36.794Z,69.82
2023-11-30T12:43:45.382Z,69.96
2023-11-30T12:45:54.479Z,69.81
2023-11-30T12:48:03.274Z,69.79
2023-11-30T12:50:12.973Z,69.59
2023-11-30T12:52:22.230Z,69.67
2023-11-30T12:54:30.945Z,69.53
2023-11-30T12:56:39.416Z,69.81
2023-11-30T12:58:48.144Z,69.82
2023-11-30T13:00:56.758Z,69.83
2023-11-30T13:03:05.316Z,69.57
2023-11-30T13:05:14.406Z,69.66
2023-11-30T13:07:22.887Z,69.75
2023-11-30T13:09:33.811Z,69.65
2023-11-30T13:11:42.308Z,69.57
2023-11-30T13:13:51.841Z,69.76
2023-11-30T13:16:03.547Z,69.57
2023-11-30T13:18:12.158Z,69.82
2023-11-30T13:20:20.830Z,69.85
2023-11-30T13:22:29.411Z,69.90
2023-11-30T13:24:38.967Z,69.89
2023-11-30T13:26:48.129Z,69.80
2023-11-30T13:28:56.752Z,69.66
2023-11-30T13:31:05.583Z,69.68
2023-11-30T13:33:14.102Z,69.74
2023-11-30T13:35:22.682Z,69.81
2023-11-30T13:37:31.119Z,69.99
2023-11-30T13:39:39.626Z,70.12
2023-11-30T13:41:48.215Z,69.96
2023-11-30T13:43:57.229Z,70.16
2023-11-30T13:46:07.057Z,70.17
2023-11-30T13:48:17.108Z,70.26
2023-11-30T13:50:30.951Z,70.40
2023-11-30T13:52:45.914Z,70.58
2023-11-30T13:54:54.381Z,70.56
2023-11-30T13:57:02.835Z,70.59
2023-11-30T13:59:11.303Z,70.42
2023-11-30T14:01:19.852Z,70.38
2023-11-30T14:03:28.659Z,70.55
2023-11-30T14:05:37.412Z,70.53
2023-11-30T14:07:46.128Z,70.71
2023-11-30T14:09:54.696Z,70.96
2023-11-30T14:12:03.289Z,70.86
2023-11-30T14:14:12.423Z,71.09
2023-11-30T14:16:21.131Z,71.24
2023-11-30T14:18:30.069Z,71.24
2023-11-30T14:20:40.581Z,71.10
2023-11-30T14:22:49.487Z,71.38
2023-11-30T14:24:58.007Z,71.27
2023-11-30T14:27:07.192Z,71.31
2023-11-30T14:29:16.002Z,71.32
2023-11-30T14:31:24.585Z,71.55
2023-11-30T14:33:33.053Z,71.66
2023-11-30T14:35:41.821Z,71.78
2023-11-30T14:37:50.319Z,71.82
2023-11-30T14:39:58.724Z,71.84
2023-11-30T14:42:09.310Z,71.89
2023-11-30T14:44:17.802Z,71.88
2023-11-30T14:46:26.371Z,71.96
2023-11-30T14:48:34.971Z,72.03
2023-11-30T14:50:44.757Z,72.21
2023-11-30T14:52:54.550Z,72.02
2023-11-30T14:55:02.981Z,72.00
2023-11-30T14:57:14.466Z,72.17
2023-11-30T14:59:23.012Z,72.38
2023-11-30T15:01:31.704Z,72.35
2023-11-30T15:03:40.738Z,72.37
2023-11-30T15:05:49.519Z,72.40
2023-11-30T15:07:58.251Z,72.48
2023-11-30T15:10:08.887Z,72.51
2023-11-30T15:12:17.646Z,72.67
2023-11-30T15:14:26.317Z,72.79
2023-11-30T15:16:34.905Z,72.84
2023-11-30T15:18:43.440Z,72.65
2023-11-30T15:20:51.881Z,72.44
2023-11-30T15:23:00.328Z,72.61
2023-11-30T15:25:17.619Z,72.48
2023-11-30T15:27:26.289Z,72.64
2023-11-30T15:29:34.668Z,72.48
2023-11-30T15:31:43.455Z,72.39
2023-11-30T15:33:52.948Z,72.53
2023-11-30T15:36:01.620Z,72.51
2023-11-30T15:38:10.102Z,72.53
2023-11-30T15:40:19.148Z,72.60
2023-11-30T15:42:28.101Z,72.68
2023-11-30T15:44:36.761Z,72.87
2023-11-30T15:46:47.348Z,72.51
2023-11-30T15:48:56.035Z,72.52
2023-11-30T15:51:07.757Z,72.58
2023-11-30T15:53:17.734Z,72.73
2023-11-30T15:55:26.122Z,72.79
2023-11-30T15:57:35.000Z,72.92
2023-11-30T15:59:43.944Z,73.03
2023-11-30T16:01:52.509Z,72.86
2023-11-30T16:04:01.219Z,72.96
2023-11-30T16:06:13.901Z,73.00
2023-11-30T16:08:22.395Z,73.00
2023-11-30T16:10:30.835Z,73.18
2023-11-30T16:12:39.294Z,73.08
2023-11-30T16:14:52.109Z,72.99
2023-11-30T16:17:00.669Z,72.91
2023-11-30T16:19:10.233Z,73.01
2023-11-30T16:21:19.911Z,73.12
2023-11-30T16:23:28.463Z,73.22
2023-11-30T16:25:37.265Z,73.22
2023-11-30T16:27:45.940Z,73.30
2023-11-30T16:29:54.717Z,73.16
2023-11-30T16:32:03.233Z,73.45
2023-11-30T16:34:11.772Z,73.40
2023-11-30T16:36:20.340Z,73.50
2023-11-30T16:38:29.036Z,73.71
2023-11-30T16:40:37.430Z,73.74
2023-11-30T16:42:45.897Z,73.68
2023-11-30T16:44:54.408Z,73.58
2023-11-30T16:47:04.817Z,73.58
2023-11-30T16:49:14.027Z,73.62
2023-11-30T16:51:22.478Z,73.68
2023-11-30T16:53:31.050Z,73.97
2023-11-30T16:55:39.723Z,73.98
2023-11-30T16:57:48.556Z,73.97
2023-11-30T16:59:57.636Z,73.87
2023-11-30T17:02:07.845Z,74.00
2023-11-30T17:04:16.503Z,74.07
2023-11-30T17:06:25.171Z,74.14
2023-11-30T17:08:33.668Z,73.88
2023-11-30T17:10:42.216Z,74.06
2023-11-30T17:12:50.890Z,74.17
2023-11-30T17:14:59.424Z,73.96
2023-11-30T17:17:08.345Z,74.01
2023-11-30T17:19:16.851Z,73.99
2023-11-30T17:21:26.047Z,74.10
2023-11-30T17:23:34.658Z,73.99
2023-11-30T17:25:44.997Z,74.01
2023-11-30T17:27:54.995Z,73.94
2023-11-30T17:30:03.788Z,74.12
2023-11-30T17:32:12.608Z,74.05
2023-11-30T17:34:21.413Z,73.76
2023-11-30T17:36:30.376Z,73.99
2023-11-30T17:38:40.887Z,73.83
2023-11-30T17:40:49.566Z,74.01
2023-11-30T17:42:58.392Z,73.85
2023-11-30T17:45:09.288Z,74.04
2023-11-30T17:47:17.863Z,73.79
2023-11-30T17:49:26.408Z,73.97
2023-11-30T17:51:34.863Z,73.94
2023-11-30T17:53:43.315Z,74.13
2023-11-30T17:55:52.704Z,74.10
2023-11-30T17:58:01.313Z,74.16
2023-11-30T18:00:12.749Z,74.03
2023-11-30T18:02:21.380Z,73.95
2023-11-30T18:04:29.860Z,73.80
2023-11-30T18:06:38.663Z,73.86
2023-11-30T18:08:47.456Z,73.89
2023-11-30T18:10:55.987Z,73.85
2023-11-30T18:13:04.483Z,73.84
2023-11-30T18:15:13.610Z,73.80
2023-11-30T18:17:22.156Z,73.63
2023-11-30T18:19:32.267Z,73.71
2023-11-30T18:21:40.913Z,73.61
2023-11-30T18:23:50.309Z,73.50
2023-11-30T18:25:58.948Z,73.53
2023-11-30T18:28:07.786Z,73.29
2023-11-30T18:30:17.543Z,73.48
2023-11-30T18:32:26.177Z,73.50
2023-11-30T18:34:37.003Z,73.72
2023-11-30T18:36:46.235Z,73.85
2023-11-30T18:38:54.941Z,74.02
2023-11-30T18:41:03.400Z,74.17
2023-11-30T18:43:16.780Z,74.25
2023-11-30T18:45:25.359Z,74.09
2023-11-30T18:47:33.791Z,74.30
2023-11-30T18:49:42.505Z,74.32
2023-11-30T18:51:50.981Z,74.19
2023-11-30T18:54:01.274Z,74.21
2023-11-30T18:56:11.233Z,74.03
2023-11-30T18:58:22.626Z,74.08
2023-11-30T19:00:33.748Z,74.04
2023-11-30T19:02:42.271Z,74.01
2023-11-30T19:04:50.815Z,73.89
2023-11-30T19:06:59.416Z,74.16
2023-11-30T19:09:08.417Z,74.12
2023-11-30T19:11:17.609Z,74.26
2023-11-30T19:13:26.257Z,74.17
2023-11-30T19:15:41.253Z,73.96
2023-11-30T19:17:50.527Z,73.86
2023-11-30T19:19:59.305Z,74.12
2023-11-30T19:22:08.245Z,74.29
2023-11-30T19:24:17.560Z,74.30
2023-11-30T19:26:26.098Z,74.26
2023-11-30T19:28:35.692Z,74.28
2023-11-30T19:30:44.752Z,74.36
2023-11-30T19:32:53.523Z,74.48
2023-11-30T19:35:02.183Z,74.15
2023-11-30T19:37:12.001Z,74.28
2023-11-30T19:39:22.987Z,74.13
2023-11-30T19:41:32.211Z,74.30
2023-11-30T19:43:40.769Z,74.27
2023-11-30T19:45:49.718Z,74.27
2023-11-30T19:47:58.337Z,74.39
2023-11-30T19:50:07.710Z,74.32
2023-11-30T19:52:16.362Z,74.17
2023-11-30T19:54:24.852Z,74.18
2023-11-30T19:56:33.441Z,74.21
2023-11-30T19:58:42.985Z,74.03
2023-11-30T20:00:52.620Z,73.99
2023-11-30T20:03:01.116Z,73.89
2023-11-30T20:05:13.223Z,73.91
2023-11-30T20:07:21.755Z,73.89
2023-11-30T20:09:30.161Z,73.98
2023-11-30T20:11:38.624Z,74.08
2023-11-30T20:13:47.122Z,74.11
2023-11-30T20:15:56.460Z,73.91
2023-11-30T20:18:05.298Z,74.10
2023-11-30T20:20:15.172Z,74.02
2023-11-30T20:22:23.804Z,73.96
2023-11-30T20:24:35.403Z,74.04
2023-11-30T20:26:46.903Z,73.95
2023-11-30T20:28:55.547Z,73.87
2023-11-30T20:31:04.224Z,73.94
2023-11-30T20:33:13.003Z,73.90
2023-11-30T20:35:21.563Z,73.78
2023-11-30T20:37:29.966Z,73.81
2023-11-30T20:39:38.397Z,73.70
2023-11-30T20:41:46.835Z,73.49
2023-11-30T20:43:55.819Z,73.54
2023-11-30T20:46:04.466Z,73.64
2023-11-30T20:48:13.843Z,73.57
2023-11-30T20:50:22.939Z,73.40
2023-11-30T20:52:31.393Z,73.38
2023-11-30T20:54:41.011Z,73.34
2023-11-30T20:56:49.996Z,73.48
2023-11-30T20:58:58.504Z,73.54
2023-11-30T21:01:07.966Z,73.59
2023-11-30T21:05:42.880Z,73.80
2023-11-30T21:07:51.552Z,73.72
2023-11-30T21:10:00.582Z,73.71
2023-11-30T21:12:12.201Z,73.54
2023-11-30T21:14:21.442Z,73.59
2023-11-30T21:16:32.409Z,73.68
2023-11-30T21:18:46.289Z,73.66
2023-11-30T21:20:54.991Z,73.72
2023-11-30T21:23:03.883Z,73.70
2023-11-30T21:25:14.561Z,73.74
2023-11-30T21:27:23.203Z,73.74
2023-11-30T21:29:31.813Z,73.73
2023-11-30T21:31:41.775Z,73.62
2023-11-30T21:33:50.397Z,73.45
2023-11-30T21:35:59.924Z,73.58
2023-11-30T21:38:08.671Z,73.67
2023-11-30T21:40:17.903Z,73.59
2023-11-30T21:42:27.025Z,73.74
2023-11-30T21:44:39.382Z,73.75
2023-11-30T21:46:48.766Z,73.80
2023-11-30T21:48:57.646Z,73.72
2023-11-30T21:51:06.893Z,73.56
2023-11-30T21:53:15.559Z,73.72
2023-11-30T21:55:24.421Z,73.78
2023-11-30T21:57:32.999Z,73.73
2023-11-30T21:59:41.666Z,73.70
2023-11-30T22:01:50.434Z,73.69
2023-11-30T22:03:59.739Z,73.61
2023-11-30T22:06:10.017Z,73.85
2023-11-30T22:08:18.620Z,73.82
2023-11-30T22:10:27.346Z,73.86
2023-11-30T22:12:37.316Z,73.94
2023-11-30T22:14:45.882Z,73.99
2023-11-30T22:16:54.644Z,74.06
2023-11-30T22:19:03.953Z,74.24
2023-11-30T22:21:12.701Z,74.15
2023-11-30T22:23:21.628Z,74.06
2023-11-30T22:25:30.405Z,74.13
2023-11-30T22:27:39.059Z,74.06
2023-11-30T22:29:47.638Z,74.20
2023-11-30T22:31:56.136Z,74.28
2023-11-30T22:34:04.766Z,74.50
2023-11-30T22:36:14.456Z,74.47
2023-11-30T22:38:23.192Z,74.59
2023-11-30T22:40:31.692Z,74.56
2023-11-30T22:42:40.355Z,74.55
2023-11-30T22:44:48.927Z,74.65
2023-11-30T22:46:57.572Z,74.61
2023-11-30T22:49:06.373Z,74.49
2023-11-30T22:51:15.290Z,74.60
2023-11-30T22:53:23.897Z,74.48
2023-11-30T22:55:32.495Z,74.70
2023-11-30T22:57:41.228Z,74.47
2023-11-30T22:59:50.378Z,74.47
2023-11-30T23:01:59.041Z,74.33
2023-11-30T23:04:08.074Z,74.48
2023-11-30T23:06:17.772Z,74.27
2023-11-30T23:08:26.301Z,74.53
2023-11-30T23:10:35.083Z,74.22
2023-11-30T23:12:43.958Z,74.51
2023-11-30T23:14:52.498Z,74.57
2023-11-30T23:17:01.066Z,74.48
2023-11-30T23:19:09.700Z,74.31
2023-11-30T23:21:18.505Z,74.20
2023-11-30T23:23:27.230Z,74.32
2023-11-30T23:25:35.750Z,74.72
2023-11-30T23:27:44.263Z,74.52
2023-11-30T23:29:53.247Z,74.69
2023-11-30T23:32:01.789Z,74.78
2023-11-30T23:34:10.395Z,75.08
2023-11-30T23:36:19.059Z,75.06
2023-11-30T23:38:27.613Z,75.19
2023-11-30T23:40:36.215Z,75.38
2023-11-30T23:42:44.754Z,75.16
2023-11-30T23:44:53.240Z,75.05
2023-11-30T23:47:01.772Z,74.96
2023-11-30T23:49:10.304Z,75.15
2023-11-30T23:51:18.840Z,75.91
2023-11-30T23:53:27.748Z,75.82
2023-11-30T23:55:36.323Z,76.06
2023-11-30T23:57:44.942Z,75.91
2023-11-30T23:59:54.098Z,75.99
